createdAt,value
2018-10-01T00:00:17.983Z,13.63
2018-10-01T00:02:48.323Z,6.80
2018-10-01T00:05:18.699Z,9.93
2018-10-01T00:07:49.099Z,11.90
2018-10-01T00:10:19.652Z,7.93
2018-10-01T00:12:50.258Z,6.67
2018-10-01T00:15:20.554Z,9.20
2018-10-01T00:17:51.096Z,8.20
2018-10-01T00:20:26.378Z,8.40
2018-10-01T00:22:56.796Z,9.00
2018-10-01T00:25:27.291Z,6.53
2018-10-01T00:27:57.889Z,8.03
2018-10-01T00:30:28.376Z,6.13
2018-10-01T00:32:58.782Z,10.60
2018-10-01T00:35:29.210Z,12.10
2018-10-01T00:37:59.608Z,6.53
2018-10-01T00:40:29.979Z,5.80
2018-10-01T00:43:11.972Z,8.30
2018-10-01T00:45:42.421Z,15.70
2018-10-01T00:48:12.980Z,9.47
2018-10-01T00:50:43.391Z,8.13
2018-10-01T00:53:13.714Z,5.67
2018-10-01T00:55:44.213Z,7.57
2018-10-01T00:58:14.711Z,12.30
2018-10-01T01:00:45.311Z,9.60
2018-10-01T01:03:15.655Z,13.33
2018-10-01T01:05:45.933Z,11.10
2018-10-01T01:08:16.500Z,14.67
2018-10-01T01:10:46.808Z,11.17
2018-10-01T01:13:17.509Z,11.70
2018-10-01T01:15:47.879Z,10.30
2018-10-01T01:18:19.152Z,9.20
2018-10-01T01:20:49.665Z,11.40
2018-10-01T01:23:20.131Z,13.20
2018-10-01T01:25:50.316Z,8.53
2018-10-01T01:28:20.684Z,8.97
2018-10-01T01:30:50.984Z,12.40
2018-10-01T01:33:21.444Z,11.50
2018-10-01T01:35:51.716Z,16.07
2018-10-01T01:38:36.896Z,12.03
2018-10-01T01:41:07.533Z,9.37
2018-10-01T01:43:38.148Z,13.50
2018-10-01T01:46:08.708Z,11.00
2018-10-01T01:48:39.086Z,9.80
2018-10-01T01:51:09.847Z,13.87
2018-10-01T01:53:40.140Z,9.50
2018-10-01T01:56:10.603Z,9.40
2018-10-01T01:58:41.104Z,17.13
2018-10-01T02:01:11.398Z,11.40
2018-10-01T02:03:41.653Z,14.00
2018-10-01T02:06:12.035Z,19.63
2018-10-01T02:08:42.388Z,15.80
2018-10-01T02:11:12.815Z,21.27
2018-10-01T02:13:43.144Z,16.27
2018-10-01T02:16:13.551Z,14.23
2018-10-01T02:18:44.058Z,15.03
2018-10-01T02:21:14.519Z,16.63
2018-10-01T02:23:44.862Z,12.73
2018-10-01T02:26:15.176Z,14.33
2018-10-01T02:28:45.635Z,18.13
2018-10-01T02:31:15.940Z,15.20
2018-10-01T02:33:46.520Z,16.00
2018-10-01T02:36:16.917Z,22.17
2018-10-01T02:38:47.272Z,20.60
2018-10-01T02:41:18.091Z,21.30
2018-10-01T02:43:48.537Z,15.30
2018-10-01T02:46:19.045Z,16.13
2018-10-01T02:48:49.410Z,21.10
2018-10-01T02:51:19.583Z,16.53
2018-10-01T02:53:55.027Z,15.80
2018-10-01T02:56:25.367Z,19.13
2018-10-01T02:58:55.841Z,18.27
2018-10-01T03:01:26.128Z,23.40
2018-10-01T03:03:56.379Z,19.73
2018-10-01T03:06:26.799Z,19.33
2018-10-01T03:08:57.246Z,19.23
2018-10-01T03:11:27.548Z,19.40
2018-10-01T03:13:57.802Z,19.20
2018-10-01T03:16:28.229Z,22.10
2018-10-01T03:18:58.671Z,25.37
2018-10-01T03:21:29.060Z,25.93
2018-10-01T03:23:59.416Z,19.43
2018-10-01T03:26:29.719Z,20.90
2018-10-01T03:29:00.768Z,14.00
2018-10-01T03:31:31.167Z,14.27
2018-10-01T03:34:01.677Z,15.13
2018-10-01T03:36:32.052Z,15.93
2018-10-01T03:39:02.422Z,22.30
2018-10-01T03:41:32.694Z,21.30
2018-10-01T03:44:03.168Z,18.17
2018-10-01T03:46:33.494Z,16.23
2018-10-01T03:49:03.756Z,20.13
2018-10-01T03:51:34.115Z,21.30
2018-10-01T03:54:04.540Z,22.10
2018-10-01T03:56:34.998Z,16.93
2018-10-01T03:59:05.468Z,16.00
2018-10-01T04:01:35.667Z,18.00
2018-10-01T04:04:06.000Z,16.03
2018-10-01T04:06:36.388Z,24.50
2018-10-01T04:09:08.999Z,14.50
2018-10-01T04:11:39.835Z,14.67
2018-10-01T04:14:10.385Z,16.00
2018-10-01T04:16:40.768Z,22.17
2018-10-01T04:19:11.179Z,18.70
2018-10-01T04:21:41.592Z,15.50
2018-10-01T04:24:12.008Z,19.23
2018-10-01T04:26:42.301Z,23.70
2018-10-01T04:29:13.979Z,17.27
2018-10-01T04:31:45.516Z,19.43
2018-10-01T04:34:16.156Z,26.60
2018-10-01T04:36:46.603Z,23.30
2018-10-01T04:39:17.268Z,21.97
2018-10-01T04:41:47.765Z,19.77
2018-10-01T04:44:18.038Z,21.47
2018-10-01T04:46:48.320Z,26.23
2018-10-01T04:49:18.861Z,19.63
2018-10-01T04:51:49.179Z,24.33
2018-10-01T04:54:19.540Z,25.40
2018-10-01T04:56:49.710Z,26.07
2018-10-01T04:59:20.185Z,19.37
2018-10-01T05:01:50.497Z,29.77
2018-10-01T05:04:20.747Z,23.20
2018-10-01T05:06:51.239Z,19.53
2018-10-01T05:09:21.625Z,21.07
2018-10-01T05:11:52.085Z,25.27
2018-10-01T05:14:22.584Z,23.83
2018-10-01T05:16:53.728Z,19.23
2018-10-01T05:19:24.172Z,21.90
2018-10-01T05:21:54.651Z,21.83
2018-10-01T05:24:24.893Z,25.43
2018-10-01T05:26:55.241Z,17.53
2018-10-01T05:29:26.361Z,27.60
2018-10-01T05:31:56.684Z,22.10
2018-10-01T05:34:27.132Z,23.07
2018-10-01T05:36:57.595Z,24.50
2018-10-01T05:39:28.221Z,27.77
2018-10-01T05:41:58.718Z,28.77
2018-10-01T05:44:29.383Z,24.80
2018-10-01T05:46:59.898Z,28.67
2018-10-01T05:49:30.349Z,25.80
2018-10-01T05:52:00.737Z,23.50
2018-10-01T05:54:31.200Z,20.23
2018-10-01T05:57:01.681Z,22.30
2018-10-01T05:59:32.040Z,27.93
2018-10-01T06:02:02.338Z,34.23
2018-10-01T06:04:32.603Z,32.17
2018-10-01T06:07:03.033Z,30.53
2018-10-01T06:09:33.492Z,26.07
2018-10-01T06:12:03.751Z,29.70
2018-10-01T06:14:34.248Z,29.60
2018-10-01T06:17:29.900Z,30.77
2018-10-01T06:20:00.422Z,27.47
2018-10-01T06:22:30.798Z,28.00
2018-10-01T06:25:01.306Z,34.93
2018-10-01T06:27:31.753Z,31.73
2018-10-01T06:30:02.214Z,33.63
2018-10-01T06:32:33.235Z,39.50
2018-10-01T06:35:03.762Z,32.47
2018-10-01T06:37:34.060Z,38.23
2018-10-01T06:40:04.784Z,33.23
2018-10-01T06:42:35.036Z,38.10
2018-10-01T06:45:05.613Z,37.60
2018-10-01T06:47:36.117Z,42.20
2018-10-01T06:50:06.592Z,43.40
2018-10-01T06:52:36.858Z,34.37
2018-10-01T06:55:07.564Z,35.27
2018-10-01T06:57:38.016Z,34.77
2018-10-01T07:00:09.860Z,38.67
2018-10-01T07:02:40.113Z,36.33
2018-10-01T07:05:10.932Z,30.00
2018-10-01T07:07:41.417Z,41.57
2018-10-01T07:10:11.863Z,33.73
2018-10-01T07:12:42.244Z,35.67
2018-10-01T07:15:12.819Z,27.63
2018-10-01T07:17:43.425Z,33.90
2018-10-01T07:20:13.791Z,26.97
2018-10-01T07:22:44.148Z,33.80
2018-10-01T07:25:14.756Z,32.43
2018-10-01T07:27:45.251Z,30.23
2018-10-01T07:30:15.719Z,29.50
2018-10-01T07:32:46.097Z,30.93
2018-10-01T07:35:16.609Z,29.20
2018-10-01T07:37:47.068Z,30.13
2018-10-01T07:40:17.447Z,26.43
2018-10-01T07:42:47.814Z,18.90
2018-10-01T07:45:18.412Z,19.63
2018-10-01T07:47:49.435Z,22.07
2018-10-01T07:50:19.864Z,15.60
2018-10-01T07:52:51.060Z,19.87
2018-10-01T07:55:21.452Z,18.50
2018-10-01T07:57:51.812Z,10.13
2018-10-01T08:00:22.232Z,20.63
2018-10-01T08:02:52.731Z,15.50
2018-10-01T08:05:22.989Z,19.43
2018-10-01T08:07:53.364Z,12.50
2018-10-01T08:10:23.812Z,10.83
2018-10-01T08:12:54.289Z,12.73
2018-10-01T08:15:24.715Z,12.07
2018-10-01T08:17:55.099Z,12.00
2018-10-01T08:20:25.656Z,18.10
2018-10-01T08:22:55.949Z,11.63
2018-10-01T08:25:26.489Z,11.57
2018-10-01T08:27:56.696Z,10.37
2018-10-01T08:30:27.068Z,12.30
2018-10-01T08:32:57.471Z,14.53
2018-10-01T08:35:28.003Z,16.20
2018-10-01T08:37:58.932Z,12.00
2018-10-01T08:40:36.155Z,18.37
2018-10-01T08:43:06.561Z,12.67
2018-10-01T08:45:37.159Z,10.90
2018-10-01T08:48:07.849Z,9.77
2018-10-01T08:50:43.544Z,10.27
2018-10-01T08:55:28.252Z,6.53
2018-10-01T08:57:58.746Z,16.87
2018-10-01T09:00:29.325Z,5.97
2018-10-01T09:02:59.739Z,18.47
2018-10-01T09:05:30.336Z,11.80
2018-10-01T09:08:00.889Z,8.27
2018-10-01T09:10:31.128Z,10.33
2018-10-01T09:13:02.031Z,11.63
2018-10-01T09:15:32.553Z,10.70
2018-10-01T09:18:03.040Z,9.70
2018-10-01T09:20:33.428Z,10.20
2018-10-01T09:23:04.053Z,9.80
2018-10-01T09:25:34.268Z,11.10
2018-10-01T09:28:04.741Z,9.70
2018-10-01T09:30:35.212Z,10.53
2018-10-01T09:33:05.671Z,4.60
2018-10-01T09:35:36.396Z,9.57
2018-10-01T09:38:07.243Z,7.83
2018-10-01T09:40:37.773Z,8.30
2018-10-01T09:43:08.338Z,6.07
2018-10-01T09:45:39.233Z,9.70
2018-10-01T09:48:09.808Z,8.30
2018-10-01T09:50:40.229Z,7.93
2018-10-01T09:53:10.488Z,6.40
2018-10-01T09:55:40.960Z,8.17
2018-10-01T09:58:11.462Z,7.97
2018-10-01T10:00:42.775Z,16.00
2018-10-01T10:03:13.403Z,9.53
2018-10-01T10:05:43.914Z,4.13
2018-10-01T10:08:14.436Z,6.00
2018-10-01T10:10:44.965Z,8.43
2018-10-01T10:13:15.350Z,11.00
2018-10-01T10:15:45.745Z,7.40
2018-10-01T10:18:16.230Z,6.83
2018-10-01T10:20:46.797Z,7.10
2018-10-01T10:23:17.279Z,6.50
2018-10-01T10:25:47.764Z,6.37
2018-10-01T10:28:18.497Z,7.70
2018-10-01T10:30:48.835Z,6.00
2018-10-01T10:33:19.326Z,10.90
2018-10-01T10:35:49.779Z,12.93
2018-10-01T10:38:20.274Z,7.23
2018-10-01T10:40:50.767Z,6.80
2018-10-01T10:43:21.101Z,4.90
2018-10-01T10:45:51.452Z,12.13
2018-10-01T10:48:25.023Z,5.87
2018-10-01T10:50:55.477Z,4.47
2018-10-01T10:53:25.981Z,6.60
2018-10-01T10:55:56.357Z,8.73
2018-10-01T10:58:26.621Z,5.03
2018-10-01T11:00:57.197Z,5.20
2018-10-01T11:03:27.482Z,4.80
2018-10-01T11:05:58.413Z,8.07
2018-10-01T11:08:28.910Z,5.27
2018-10-01T11:10:59.563Z,5.13
2018-10-01T11:13:29.954Z,5.50
2018-10-01T11:16:01.137Z,12.80
2018-10-01T11:18:31.556Z,4.77
2018-10-01T11:21:02.011Z,5.90
2018-10-01T11:23:32.289Z,2.77
2018-10-01T11:26:02.641Z,2.87
2018-10-01T11:28:33.093Z,5.83
2018-10-01T11:31:03.547Z,6.40
2018-10-01T11:33:34.035Z,4.00
2018-10-01T11:36:04.653Z,4.87
2018-10-01T11:38:34.968Z,5.40
2018-10-01T11:41:05.514Z,4.73
2018-10-01T11:43:35.912Z,7.23
2018-10-01T11:46:06.409Z,6.80
2018-10-01T11:48:36.895Z,10.77
2018-10-01T11:51:07.580Z,5.90
2018-10-01T11:53:37.854Z,4.67
2018-10-01T11:56:08.361Z,8.00
2018-10-01T11:58:38.708Z,13.90
2018-10-01T12:01:09.497Z,4.83
2018-10-01T12:03:40.000Z,4.07
2018-10-01T12:06:10.459Z,4.00
2018-10-01T12:08:41.056Z,13.10
2018-10-01T12:11:11.623Z,6.77
2018-10-01T12:13:42.126Z,6.40
2018-10-01T12:16:12.588Z,8.70
2018-10-01T12:18:42.951Z,4.83
2018-10-01T12:21:13.553Z,7.93
2018-10-01T12:23:43.941Z,6.60
2018-10-01T12:26:14.430Z,9.33
2018-10-01T12:28:44.712Z,5.23
2018-10-01T12:31:15.119Z,5.17
2018-10-01T12:33:45.590Z,3.40
2018-10-01T12:36:16.240Z,5.20
2018-10-01T12:39:05.338Z,4.03
2018-10-01T12:41:35.739Z,3.97
2018-10-01T12:44:06.351Z,2.77
2018-10-01T12:46:36.784Z,3.37
2018-10-01T12:49:07.190Z,1.53
2018-10-01T12:51:37.623Z,2.57
2018-10-01T12:54:08.151Z,2.30
2018-10-01T12:56:38.720Z,1.97
2018-10-01T12:59:09.427Z,0.80
2018-10-01T13:01:39.792Z,3.40
2018-10-01T13:04:10.273Z,2.57
2018-10-01T13:06:40.700Z,2.97
2018-10-01T13:09:13.046Z,1.80
2018-10-01T13:11:43.469Z,1.23
2018-10-01T13:14:13.847Z,6.33
2018-10-01T13:16:44.196Z,1.33
2018-10-01T13:19:14.582Z,1.10
2018-10-01T13:21:44.965Z,2.83
2018-10-01T13:24:15.778Z,2.43
2018-10-01T13:26:46.243Z,0.80
2018-10-01T13:29:16.448Z,2.43
2018-10-01T13:31:46.864Z,1.03
2018-10-01T13:34:17.259Z,6.20
2018-10-01T13:36:47.853Z,1.80
2018-10-01T13:39:18.012Z,6.00
2018-10-01T13:41:48.493Z,2.00
2018-10-01T13:44:19.081Z,1.80
2018-10-01T13:46:49.501Z,1.13
2018-10-01T13:49:19.999Z,1.63
2018-10-01T13:51:50.553Z,0.50
2018-10-01T13:54:21.195Z,1.03
2018-10-01T13:56:51.352Z,1.57
2018-10-01T13:59:21.696Z,1.23
2018-10-01T14:01:52.100Z,0.70
2018-10-01T14:04:22.468Z,0.90
2018-10-01T14:06:52.811Z,0.93
2018-10-01T14:09:23.300Z,2.10
2018-10-01T14:11:53.788Z,0.40
2018-10-01T14:14:24.303Z,0.80
2018-10-01T14:16:55.166Z,1.90
2018-10-01T14:19:25.703Z,1.90
2018-10-01T14:21:56.037Z,0.47
2018-10-01T14:24:26.648Z,4.83
2018-10-01T14:26:57.248Z,1.90
2018-10-01T14:29:27.451Z,0.83
2018-10-01T14:31:57.961Z,2.50
2018-10-01T14:34:28.419Z,1.53
2018-10-01T14:36:59.053Z,2.40
2018-10-01T14:39:29.388Z,2.83
2018-10-01T14:41:59.896Z,1.17
2018-10-01T14:44:30.350Z,1.43
2018-10-01T14:47:00.934Z,1.33
2018-10-01T14:49:31.263Z,2.10
2018-10-01T14:52:01.586Z,2.67
2018-10-01T14:54:31.917Z,2.20
2018-10-01T14:57:02.505Z,1.60
2018-10-01T14:59:32.963Z,6.17
2018-10-01T15:02:03.535Z,8.47
2018-10-01T15:04:34.037Z,1.80
2018-10-01T15:07:04.289Z,3.63
2018-10-01T15:09:34.767Z,0.90
2018-10-01T15:12:05.359Z,13.33
2018-10-01T15:14:35.736Z,5.40
2018-10-01T15:17:06.418Z,2.73
2018-10-01T15:19:36.924Z,0.70
2018-10-01T15:22:07.325Z,4.13
2018-10-01T15:24:37.661Z,4.20
2018-10-01T15:27:08.243Z,2.77
2018-10-01T15:29:38.651Z,1.33
2018-10-01T15:32:09.300Z,6.90
2018-10-01T15:34:39.716Z,3.20
2018-10-01T15:37:09.976Z,2.60
2018-10-01T15:39:40.448Z,2.40
2018-10-01T15:42:11.047Z,1.73
2018-10-01T15:44:42.172Z,3.80
2018-10-01T15:47:12.471Z,3.00
2018-10-01T15:49:42.919Z,1.43
2018-10-01T15:52:13.304Z,3.80
2018-10-01T15:54:43.860Z,2.53
2018-10-01T15:57:14.243Z,2.50
2018-10-01T15:59:44.884Z,1.23
2018-10-01T16:02:15.388Z,2.23
2018-10-01T16:04:45.791Z,1.30
2018-10-01T16:07:16.080Z,1.50
2018-10-01T16:09:46.427Z,2.00
2018-10-01T16:12:17.409Z,3.03
2018-10-01T16:14:47.824Z,1.93
2018-10-01T16:17:18.150Z,0.77
2018-10-01T16:19:48.506Z,2.30
2018-10-01T16:22:19.063Z,5.13
2018-10-01T16:24:49.440Z,1.27
2018-10-01T16:27:19.818Z,3.33
2018-10-01T16:29:50.248Z,4.50
2018-10-01T16:32:20.641Z,4.03
2018-10-01T16:34:51.128Z,4.60
2018-10-01T16:37:21.609Z,1.80
2018-10-01T16:39:51.923Z,3.30
2018-10-01T16:42:22.185Z,3.23
2018-10-01T16:44:52.465Z,6.20
2018-10-01T16:47:22.963Z,1.70
2018-10-01T16:49:53.543Z,7.90
2018-10-01T16:52:24.023Z,2.40
2018-10-01T16:54:54.297Z,3.97
2018-10-01T16:57:24.540Z,3.30
2018-10-01T16:59:54.954Z,4.50
2018-10-01T17:02:25.527Z,2.90
2018-10-01T17:04:56.029Z,2.37
2018-10-01T17:07:26.976Z,2.53
2018-10-01T17:09:57.486Z,5.40
2018-10-01T17:12:27.954Z,10.47
2018-10-01T17:14:58.372Z,10.03
2018-10-01T17:17:28.920Z,6.20
2018-10-01T17:19:59.224Z,4.00
2018-10-01T17:22:29.565Z,4.07
2018-10-01T17:24:59.948Z,4.10
2018-10-01T17:27:30.424Z,4.27
2018-10-01T17:30:00.858Z,2.30
2018-10-01T17:32:31.051Z,5.10
2018-10-01T17:35:01.384Z,7.20
2018-10-01T17:37:31.881Z,4.30
2018-10-01T17:40:02.383Z,4.20
2018-10-01T17:42:32.939Z,3.97
2018-10-01T17:45:03.221Z,3.53
2018-10-01T17:47:33.696Z,6.83
2018-10-01T17:50:04.018Z,8.83
2018-10-01T17:52:34.281Z,11.20
2018-10-01T17:55:04.555Z,4.50
2018-10-01T17:57:34.962Z,6.07
2018-10-01T18:00:05.917Z,2.73
2018-10-01T18:02:36.388Z,9.97
2018-10-01T18:05:07.328Z,6.27
2018-10-01T18:07:37.948Z,4.43
2018-10-01T18:10:08.924Z,4.33
2018-10-01T18:12:39.434Z,5.23
2018-10-01T18:15:10.680Z,6.60
2018-10-01T18:17:41.118Z,4.90
2018-10-01T18:20:11.596Z,3.20
2018-10-01T18:22:42.159Z,6.70
2018-10-01T18:25:12.967Z,4.60
2018-10-01T18:27:43.347Z,6.40
2018-10-01T18:30:13.789Z,5.63
2018-10-01T18:32:44.176Z,5.90
2018-10-01T18:35:14.616Z,9.07
2018-10-01T18:37:45.127Z,4.27
2018-10-01T18:40:15.948Z,3.70
2018-10-01T18:42:46.923Z,11.60
2018-10-01T18:45:17.328Z,6.50
2018-10-01T18:47:47.860Z,2.97
2018-10-01T18:50:18.139Z,6.63
2018-10-01T18:52:48.664Z,3.00
2018-10-01T18:55:19.052Z,3.60
2018-10-01T18:57:49.471Z,5.07
2018-10-01T19:00:20.091Z,3.30
2018-10-01T19:02:51.044Z,3.03
2018-10-01T19:05:21.516Z,2.00
2018-10-01T19:07:51.883Z,4.93
2018-10-01T19:10:22.315Z,3.17
2018-10-01T19:12:52.732Z,4.73
2018-10-01T19:15:23.139Z,5.70
2018-10-01T19:17:53.547Z,6.73
2018-10-01T19:20:23.971Z,8.00
2018-10-01T19:22:54.968Z,5.30
2018-10-01T19:25:25.543Z,6.13
2018-10-01T19:27:56.033Z,7.73
2018-10-01T19:30:26.551Z,6.23
2018-10-01T19:32:57.368Z,2.30
2018-10-01T19:35:27.865Z,5.50
2018-10-01T19:37:58.278Z,2.80
2018-10-01T19:40:28.736Z,4.77
2018-10-01T19:42:59.317Z,11.90
2018-10-01T19:45:29.795Z,7.80
2018-10-01T19:48:00.443Z,4.00
2018-10-01T19:50:30.834Z,4.50
2018-10-01T19:53:28.429Z,6.43
2018-10-01T19:55:58.979Z,5.53
2018-10-01T19:58:29.330Z,4.40
2018-10-01T20:00:59.843Z,10.00
2018-10-01T20:03:30.364Z,4.50
2018-10-01T20:06:00.789Z,7.00
2018-10-01T20:08:31.263Z,5.20
2018-10-01T20:11:01.811Z,5.77
2018-10-01T20:13:32.249Z,7.43
2018-10-01T20:16:02.640Z,8.63
2018-10-01T20:18:33.251Z,5.97
2018-10-01T20:21:03.838Z,11.33
2018-10-01T20:23:34.464Z,5.90
2018-10-01T20:26:04.745Z,6.43
2018-10-01T20:28:35.274Z,4.73
2018-10-01T20:31:05.519Z,9.90
2018-10-01T20:33:35.987Z,6.47
2018-10-01T20:36:06.423Z,9.07
2018-10-01T20:38:36.738Z,7.77
2018-10-01T20:41:07.240Z,12.90
2018-10-01T20:43:37.692Z,9.60
2018-10-01T20:46:08.207Z,6.00
2018-10-01T20:48:38.439Z,8.83
2018-10-01T20:51:08.868Z,3.87
2018-10-01T20:53:39.384Z,4.50
2018-10-01T20:56:09.849Z,6.00
2018-10-01T20:58:40.351Z,5.67
2018-10-01T21:01:10.997Z,4.10
2018-10-01T21:03:41.256Z,4.63
2018-10-01T21:06:11.748Z,6.93
2018-10-01T21:08:42.136Z,2.83
2018-10-01T21:11:12.633Z,7.70
2018-10-01T21:13:43.084Z,5.20
2018-10-01T21:16:13.514Z,5.67
2018-10-01T21:18:44.143Z,15.13
2018-10-01T21:21:14.556Z,4.13
2018-10-01T21:23:45.148Z,5.50
2018-10-01T21:26:15.710Z,5.67
2018-10-01T21:28:46.178Z,4.67
2018-10-01T21:31:16.801Z,6.77
2018-10-01T21:33:48.039Z,13.80
2018-10-01T21:36:18.471Z,12.43
2018-10-01T21:38:49.012Z,6.57
2018-10-01T21:41:19.737Z,14.07
2018-10-01T21:43:50.187Z,5.13
2018-10-01T21:46:20.693Z,6.43
2018-10-01T21:48:50.949Z,7.50
2018-10-01T21:51:21.348Z,12.87
2018-10-01T21:53:51.823Z,4.70
2018-10-01T21:56:22.313Z,10.50
2018-10-01T21:58:52.775Z,6.53
2018-10-01T22:01:28.010Z,8.03
2018-10-01T22:03:58.250Z,9.20
2018-10-01T22:06:28.627Z,8.20
2018-10-01T22:08:59.215Z,6.70
2018-10-01T22:11:29.598Z,6.20
2018-10-01T22:13:59.959Z,7.80
2018-10-01T22:16:30.442Z,20.60
2018-10-01T22:19:00.937Z,7.60
2018-10-01T22:21:31.211Z,10.73
2018-10-01T22:24:01.628Z,14.43
2018-10-01T22:26:31.840Z,8.17
2018-10-01T22:29:02.256Z,13.80
2018-10-01T22:31:32.648Z,8.80
2018-10-01T22:34:03.195Z,14.47
2018-10-01T22:36:33.455Z,7.10
2018-10-01T22:39:04.831Z,3.83
2018-10-01T22:41:35.173Z,9.50
2018-10-01T22:44:05.648Z,5.20
2018-10-01T22:46:36.295Z,7.07
2018-10-01T22:49:06.823Z,10.03
2018-10-01T22:51:37.519Z,9.27
2018-10-01T22:54:08.090Z,8.30
2018-10-01T22:56:38.390Z,7.77
2018-10-01T22:59:08.759Z,9.47
2018-10-01T23:01:39.098Z,6.13
2018-10-01T23:04:17.289Z,6.53
2018-10-01T23:06:47.664Z,20.60
2018-10-01T23:09:18.034Z,5.10
2018-10-01T23:11:48.216Z,12.90
2018-10-01T23:14:18.584Z,11.53
2018-10-01T23:16:48.990Z,11.97
2018-10-01T23:19:19.256Z,4.07
2018-10-01T23:21:49.719Z,10.83
2018-10-01T23:24:20.095Z,10.23
2018-10-01T23:26:50.401Z,5.80
2018-10-01T23:29:20.659Z,5.27
2018-10-01T23:31:50.924Z,17.10
2018-10-01T23:34:21.408Z,4.37
2018-10-01T23:36:51.716Z,8.23
2018-10-01T23:39:21.961Z,12.20
2018-10-01T23:41:52.349Z,7.03
2018-10-01T23:44:22.825Z,8.70
2018-10-01T23:46:53.235Z,7.53
2018-10-01T23:49:23.811Z,6.40
2018-10-01T23:51:54.440Z,11.33
2018-10-01T23:54:24.756Z,9.23
2018-10-01T23:56:55.132Z,7.47
2018-10-01T23:59:25.715Z,12.00
